Taunton, Massachusetts
Current Conditions -  °F | °C
As of 4:52 AM on Sunday 21 Dec 2014 (Local Time) from KTAN Reporting Station
Overcast Overcast  
Wind Chill: 35°   Ceiling: 1500
Heat Index: 35°   Visibility: 7mi
Dew Point: 33°   Wind: 0mph
Humidity: 92%   Direction: NA
Pressure: 30.25"   Gusts: NA
Location:  41.9°N, 71.09°W
Report Text: KTAN 210952Z AUTO 00000KT 7SM BKN015 OVC020 02/01 A3025 RMK AO2 RAE0856B17E34 SLP245 P0000 T00170006
Loading
Personal Weather Stations






























Interactive Weather Map New forecast layout! Learn more

10-Day Weather Forecast

Advertisements
Track Severe Weather on mobile